In Rescue
 
Open Full Screen Window  High Contrast Mode
Wind Gusting 33 knots
19
March 29, 2020 8:12 PM EDT
Weather Information
Wind Direction
  250 °
Wind Speed
  19 kt (22 mph)
Wind Gust
  33 kt (38 mph)
Altimeter
29.77 in
Visibility
10 SM
Temperature
08° C
46° F
Dewpoint
01° C
34° F
Humidity
62%
1hr Rain Fall
00.00 in.
24hr Rain Fall
00.07 in.
Sky Condition
Overcast @ 3,300 ft
VFR

METAR KRMY 300012Z AUTO 25019G33KT 10SM OVC033 08/01 A2977 RMK AO2 T00800005

FAA Disclaimer: The data displayed is for advisory purposes only and is not to be used for flight planning or operations.